sensor_id;sensor_type;location;lat;lon;timestamp;P1;durP1;ratioP1;P2;durP2;ratioP2
11016;SDS011;54687;50.800;6.772;2023-02-03T00:00:10;7.70;;;4.43;;
11016;SDS011;54687;50.800;6.772;2023-02-03T00:02:37;6.97;;;4.22;;
11016;SDS011;54687;50.800;6.772;2023-02-03T00:05:04;5.57;;;4.40;;
11016;SDS011;54687;50.800;6.772;2023-02-03T00:07:31;7.85;;;4.35;;
11016;SDS011;54687;50.800;6.772;2023-02-03T00:10:00;6.13;;;4.45;;
11016;SDS011;54687;50.800;6.772;2023-02-03T00:12:27;6.47;;;3.92;;
11016;SDS011;54687;50.800;6.772;2023-02-03T00:14:54;8.90;;;4.85;;
11016;SDS011;54687;50.800;6.772;2023-02-03T00:17:22;6.63;;;4.40;;
11016;SDS011;54687;50.800;6.772;2023-02-03T00:19:48;8.95;;;4.30;;
11016;SDS011;54687;50.800;6.772;2023-02-03T00:22:15;5.18;;;3.53;;
11016;SDS011;54687;50.800;6.772;2023-02-03T00:24:42;5.50;;;4.05;;
11016;SDS011;54687;50.800;6.772;2023-02-03T00:27:08;6.88;;;4.03;;
11016;SDS011;54687;50.800;6.772;2023-02-03T00:29:35;6.82;;;4.13;;
11016;SDS011;54687;50.800;6.772;2023-02-03T00:32:01;6.57;;;3.42;;
11016;SDS011;54687;50.800;6.772;2023-02-03T00:34:30;9.25;;;3.95;;
11016;SDS011;54687;50.800;6.772;2023-02-03T00:36:57;7.68;;;3.63;;
11016;SDS011;54687;50.800;6.772;2023-02-03T00:39:23;8.63;;;3.90;;
11016;SDS011;54687;50.800;6.772;2023-02-03T00:41:50;5.82;;;3.28;;
11016;SDS011;54687;50.800;6.772;2023-02-03T00:44:16;6.22;;;3.42;;
11016;SDS011;54687;50.800;6.772;2023-02-03T00:46:43;5.00;;;3.13;;
11016;SDS011;54687;50.800;6.772;2023-02-03T00:49:09;6.35;;;3.85;;
11016;SDS011;54687;50.800;6.772;2023-02-03T00:51:37;6.70;;;3.85;;
11016;SDS011;54687;50.800;6.772;2023-02-03T00:54:04;6.03;;;3.10;;
11016;SDS011;54687;50.800;6.772;2023-02-03T00:56:30;7.72;;;3.60;;
11016;SDS011;54687;50.800;6.772;2023-02-03T00:58:57;5.85;;;3.08;;
11016;SDS011;54687;50.800;6.772;2023-02-03T01:01:23;10.57;;;3.75;;
11016;SDS011;54687;50.800;6.772;2023-02-03T01:03:52;4.97;;;3.03;;
11016;SDS011;54687;50.800;6.772;2023-02-03T01:06:19;7.78;;;3.17;;
11016;SDS011;54687;50.800;6.772;2023-02-03T01:08:48;5.78;;;3.65;;
11016;SDS011;54687;50.800;6.772;2023-02-03T01:11:18;5.47;;;4.03;;
11016;SDS011;54687;50.800;6.772;2023-02-03T01:13:46;3.80;;;2.65;;
11016;SDS011;54687;50.800;6.772;2023-02-03T01:16:13;5.13;;;3.45;;
11016;SDS011;54687;50.800;6.772;2023-02-03T01:18:41;7.38;;;3.30;;
11016;SDS011;54687;50.800;6.772;2023-02-03T01:21:09;6.75;;;3.33;;
11016;SDS011;54687;50.800;6.772;2023-02-03T01:23:37;6.65;;;3.42;;
11016;SDS011;54687;50.800;6.772;2023-02-03T01:26:06;7.13;;;3.58;;
11016;SDS011;54687;50.800;6.772;2023-02-03T01:28:35;7.05;;;3.22;;
11016;SDS011;54687;50.800;6.772;2023-02-03T01:31:09;5.82;;;3.15;;
11016;SDS011;54687;50.800;6.772;2023-02-03T01:33:37;6.88;;;3.53;;
11016;SDS011;54687;50.800;6.772;2023-02-03T01:36:05;7.10;;;3.80;;
11016;SDS011;54687;50.800;6.772;2023-02-03T01:38:32;7.13;;;3.92;;
11016;SDS011;54687;50.800;6.772;2023-02-03T01:40:59;8.75;;;3.40;;
11016;SDS011;54687;50.800;6.772;2023-02-03T01:43:30;7.90;;;3.60;;
11016;SDS011;54687;50.800;6.772;2023-02-03T01:45:58;8.30;;;3.60;;
11016;SDS011;54687;50.800;6.772;2023-02-03T01:48:30;5.03;;;3.00;;
11016;SDS011;54687;50.800;6.772;2023-02-03T01:51:00;8.85;;;3.72;;
11016;SDS011;54687;50.800;6.772;2023-02-03T01:53:29;6.22;;;3.42;;
11016;SDS011;54687;50.800;6.772;2023-02-03T01:55:58;4.45;;;2.80;;
11016;SDS011;54687;50.800;6.772;2023-02-03T01:58:27;6.97;;;3.65;;
11016;SDS011;54687;50.800;6.772;2023-02-03T02:00:58;6.05;;;3.50;;
11016;SDS011;54687;50.800;6.772;2023-02-03T02:03:25;5.85;;;3.05;;
11016;SDS011;54687;50.800;6.772;2023-02-03T02:05:57;4.75;;;3.22;;
11016;SDS011;54687;50.800;6.772;2023-02-03T02:08:28;7.00;;;3.15;;
11016;SDS011;54687;50.800;6.772;2023-02-03T02:10:56;6.07;;;2.92;;
11016;SDS011;54687;50.800;6.772;2023-02-03T02:13:23;4.10;;;3.15;;
11016;SDS011;54687;50.800;6.772;2023-02-03T02:15:53;4.22;;;3.20;;
11016;SDS011;54687;50.800;6.772;2023-02-03T02:18:31;5.50;;;3.45;;
11016;SDS011;54687;50.800;6.772;2023-02-03T02:24:24;5.47;;;3.20;;
11016;SDS011;54687;50.800;6.772;2023-02-03T02:27:08;5.80;;;3.05;;
11016;SDS011;54687;50.800;6.772;2023-02-03T02:32:53;5.30;;;3.22;;
11016;SDS011;54687;50.800;6.772;2023-02-03T02:35:37;4.93;;;2.83;;
11016;SDS011;54687;50.800;6.772;2023-02-03T02:38:14;4.00;;;3.00;;
11016;SDS011;54687;50.800;6.772;2023-02-03T02:40:49;5.90;;;2.85;;
11016;SDS011;54687;50.800;6.772;2023-02-03T02:43:22;5.07;;;2.97;;
11016;SDS011;54687;50.800;6.772;2023-02-03T02:45:55;5.45;;;2.55;;
11016;SDS011;54687;50.800;6.772;2023-02-03T02:48:30;5.68;;;3.00;;
11016;SDS011;54687;50.800;6.772;2023-02-03T02:51:00;4.40;;;2.45;;
11016;SDS011;54687;50.800;6.772;2023-02-03T02:53:31;3.85;;;2.65;;
11016;SDS011;54687;50.800;6.772;2023-02-03T02:56:03;6.82;;;2.90;;
11016;SDS011;54687;50.800;6.772;2023-02-03T02:58:33;5.55;;;3.10;;
11016;SDS011;54687;50.800;6.772;2023-02-03T03:01:01;6.18;;;2.80;;
11016;SDS011;54687;50.800;6.772;2023-02-03T03:03:29;4.60;;;2.80;;
11016;SDS011;54687;50.800;6.772;2023-02-03T03:05:57;5.78;;;3.20;;
11016;SDS011;54687;50.800;6.772;2023-02-03T03:08:29;4.68;;;2.97;;
11016;SDS011;54687;50.800;6.772;2023-02-03T03:10:59;4.18;;;3.03;;
11016;SDS011;54687;50.800;6.772;2023-02-03T03:13:29;3.40;;;2.90;;
11016;SDS011;54687;50.800;6.772;2023-02-03T03:15:59;8.10;;;3.40;;
11016;SDS011;54687;50.800;6.772;2023-02-03T03:18:31;5.32;;;2.80;;
11016;SDS011;54687;50.800;6.772;2023-02-03T03:21:00;3.95;;;2.88;;
11016;SDS011;54687;50.800;6.772;2023-02-03T03:23:31;4.65;;;2.60;;
11016;SDS011;54687;50.800;6.772;2023-02-03T03:26:07;6.88;;;3.38;;
11016;SDS011;54687;50.800;6.772;2023-02-03T03:28:40;4.90;;;3.33;;
11016;SDS011;54687;50.800;6.772;2023-02-03T03:31:11;3.70;;;2.60;;
11016;SDS011;54687;50.800;6.772;2023-02-03T03:33:39;5.60;;;2.92;;
11016;SDS011;54687;50.800;6.772;2023-02-03T03:36:09;6.43;;;3.75;;
11016;SDS011;54687;50.800;6.772;2023-02-03T03:38:44;5.78;;;3.47;;
11016;SDS011;54687;50.800;6.772;2023-02-03T03:41:18;5.63;;;3.20;;
11016;SDS011;54687;50.800;6.772;2023-02-03T03:43:52;5.45;;;3.30;;
11016;SDS011;54687;50.800;6.772;2023-02-03T03:46:24;7.15;;;3.97;;
11016;SDS011;54687;50.800;6.772;2023-02-03T03:48:56;5.32;;;3.15;;
11016;SDS011;54687;50.800;6.772;2023-02-03T03:51:26;4.10;;;3.15;;
11016;SDS011;54687;50.800;6.772;2023-02-03T03:53:56;5.47;;;2.67;;
11016;SDS011;54687;50.800;6.772;2023-02-03T03:56:29;5.45;;;3.10;;
11016;SDS011;54687;50.800;6.772;2023-02-03T03:59:00;5.20;;;3.10;;
11016;SDS011;54687;50.800;6.772;2023-02-03T04:01:30;5.20;;;3.10;;
11016;SDS011;54687;50.800;6.772;2023-02-03T04:03:59;5.70;;;3.13;;
11016;SDS011;54687;50.800;6.772;2023-02-03T04:06:31;6.68;;;3.53;;
11016;SDS011;54687;50.800;6.772;2023-02-03T04:08:58;6.85;;;2.95;;
11016;SDS011;54687;50.800;6.772;2023-02-03T04:11:26;6.38;;;3.05;;
11016;SDS011;54687;50.800;6.772;2023-02-03T04:14:10;6.05;;;3.15;;
11016;SDS011;54687;50.800;6.772;2023-02-03T04:16:36;7.50;;;3.13;;
11016;SDS011;54687;50.800;6.772;2023-02-03T04:19:04;5.80;;;2.85;;
11016;SDS011;54687;50.800;6.772;2023-02-03T04:21:32;5.93;;;2.78;;
11016;SDS011;54687;50.800;6.772;2023-02-03T04:23:58;6.53;;;2.55;;
11016;SDS011;54687;50.800;6.772;2023-02-03T04:26:25;7.35;;;3.03;;
11016;SDS011;54687;50.800;6.772;2023-02-03T04:28:51;4.78;;;2.90;;
11016;SDS011;54687;50.800;6.772;2023-02-03T04:31:18;8.82;;;3.05;;
11016;SDS011;54687;50.800;6.772;2023-02-03T04:33:44;5.75;;;2.97;;
11016;SDS011;54687;50.800;6.772;2023-02-03T04:36:12;4.85;;;2.58;;
11016;SDS011;54687;50.800;6.772;2023-02-03T04:38:40;6.25;;;2.97;;
11016;SDS011;54687;50.800;6.772;2023-02-03T04:41:06;4.55;;;2.97;;
11016;SDS011;54687;50.800;6.772;2023-02-03T04:43:33;5.32;;;2.60;;
11016;SDS011;54687;50.800;6.772;2023-02-03T04:46:00;5.30;;;2.78;;
11016;SDS011;54687;50.800;6.772;2023-02-03T04:48:26;7.15;;;2.75;;
11016;SDS011;54687;50.800;6.772;2023-02-03T04:50:53;5.97;;;2.80;;
11016;SDS011;54687;50.800;6.772;2023-02-03T04:53:21;4.75;;;2.60;;
11016;SDS011;54687;50.800;6.772;2023-02-03T04:55:48;5.07;;;2.60;;
11016;SDS011;54687;50.800;6.772;2023-02-03T04:58:14;6.05;;;2.88;;
11016;SDS011;54687;50.800;6.772;2023-02-03T05:00:41;3.85;;;2.70;;
11016;SDS011;54687;50.800;6.772;2023-02-03T05:03:08;8.23;;;2.80;;
11016;SDS011;54687;50.800;6.772;2023-02-03T05:05:34;6.57;;;2.55;;
11016;SDS011;54687;50.800;6.772;2023-02-03T05:08:01;5.13;;;2.50;;
11016;SDS011;54687;50.800;6.772;2023-02-03T05:10:28;5.45;;;2.58;;
11016;SDS011;54687;50.800;6.772;2023-02-03T05:12:55;5.82;;;2.40;;
11016;SDS011;54687;50.800;6.772;2023-02-03T05:15:22;6.78;;;2.67;;
11016;SDS011;54687;50.800;6.772;2023-02-03T05:17:50;5.00;;;2.97;;
11016;SDS011;54687;50.800;6.772;2023-02-03T05:20:17;5.70;;;2.65;;
11016;SDS011;54687;50.800;6.772;2023-02-03T05:22:44;4.75;;;2.67;;
11016;SDS011;54687;50.800;6.772;2023-02-03T05:25:10;5.55;;;2.70;;
11016;SDS011;54687;50.800;6.772;2023-02-03T05:27:38;5.30;;;2.70;;
11016;SDS011;54687;50.800;6.772;2023-02-03T05:30:06;6.15;;;2.00;;
11016;SDS011;54687;50.800;6.772;2023-02-03T05:32:34;4.85;;;2.40;;
11016;SDS011;54687;50.800;6.772;2023-02-03T05:35:01;3.47;;;2.20;;
11016;SDS011;54687;50.800;6.772;2023-02-03T05:37:27;5.47;;;2.35;;
11016;SDS011;54687;50.800;6.772;2023-02-03T05:39:54;4.43;;;2.53;;
11016;SDS011;54687;50.800;6.772;2023-02-03T05:42:46;6.93;;;2.88;;
11016;SDS011;54687;50.800;6.772;2023-02-03T05:45:12;5.43;;;2.35;;
11016;SDS011;54687;50.800;6.772;2023-02-03T05:47:38;6.10;;;2.40;;
11016;SDS011;54687;50.800;6.772;2023-02-03T05:50:05;5.15;;;2.50;;
11016;SDS011;54687;50.800;6.772;2023-02-03T05:52:32;5.28;;;2.33;;
11016;SDS011;54687;50.800;6.772;2023-02-03T05:54:58;4.32;;;2.20;;
11016;SDS011;54687;50.800;6.772;2023-02-03T05:57:25;3.35;;;2.10;;
11016;SDS011;54687;50.800;6.772;2023-02-03T05:59:53;5.05;;;2.08;;
11016;SDS011;54687;50.800;6.772;2023-02-03T06:02:19;4.63;;;2.28;;
11016;SDS011;54687;50.800;6.772;2023-02-03T06:04:46;4.22;;;2.22;;
11016;SDS011;54687;50.800;6.772;2023-02-03T06:07:13;4.28;;;2.10;;
11016;SDS011;54687;50.800;6.772;2023-02-03T06:09:39;4.60;;;2.47;;
11016;SDS011;54687;50.800;6.772;2023-02-03T06:12:06;6.55;;;2.58;;
11016;SDS011;54687;50.800;6.772;2023-02-03T06:14:32;4.97;;;2.47;;
11016;SDS011;54687;50.800;6.772;2023-02-03T06:17:00;4.15;;;2.15;;
11016;SDS011;54687;50.800;6.772;2023-02-03T06:19:27;4.22;;;2.13;;
11016;SDS011;54687;50.800;6.772;2023-02-03T06:21:53;6.47;;;1.95;;
11016;SDS011;54687;50.800;6.772;2023-02-03T06:24:20;3.05;;;2.30;;
11016;SDS011;54687;50.800;6.772;2023-02-03T06:26:46;4.53;;;2.35;;
11016;SDS011;54687;50.800;6.772;2023-02-03T06:29:13;5.45;;;2.28;;
11016;SDS011;54687;50.800;6.772;2023-02-03T06:31:39;4.40;;;2.30;;
11016;SDS011;54687;50.800;6.772;2023-02-03T06:34:07;6.10;;;2.63;;
11016;SDS011;54687;50.800;6.772;2023-02-03T06:36:34;4.60;;;2.65;;
11016;SDS011;54687;50.800;6.772;2023-02-03T06:39:01;5.10;;;2.50;;
11016;SDS011;54687;50.800;6.772;2023-02-03T06:41:28;4.60;;;2.30;;
11016;SDS011;54687;50.800;6.772;2023-02-03T06:43:54;4.75;;;2.20;;
11016;SDS011;54687;50.800;6.772;2023-02-03T06:46:21;4.93;;;2.40;;
11016;SDS011;54687;50.800;6.772;2023-02-03T06:48:52;5.63;;;2.40;;
11016;SDS011;54687;50.800;6.772;2023-02-03T06:51:20;4.00;;;2.42;;
11016;SDS011;54687;50.800;6.772;2023-02-03T06:53:48;5.82;;;2.97;;
11016;SDS011;54687;50.800;6.772;2023-02-03T06:56:15;6.00;;;2.78;;
11016;SDS011;54687;50.800;6.772;2023-02-03T06:58:42;5.57;;;2.20;;
11016;SDS011;54687;50.800;6.772;2023-02-03T07:01:08;5.32;;;2.75;;
11016;SDS011;54687;50.800;6.772;2023-02-03T07:03:35;3.70;;;2.13;;
11016;SDS011;54687;50.800;6.772;2023-02-03T07:06:01;4.25;;;2.30;;
11016;SDS011;54687;50.800;6.772;2023-02-03T07:08:30;5.32;;;2.53;;
11016;SDS011;54687;50.800;6.772;2023-02-03T07:10:56;5.28;;;2.03;;
11016;SDS011;54687;50.800;6.772;2023-02-03T07:13:23;4.43;;;2.22;;
11016;SDS011;54687;50.800;6.772;2023-02-03T07:15:49;3.55;;;2.20;;
11016;SDS011;54687;50.800;6.772;2023-02-03T07:18:19;8.88;;;2.85;;
11016;SDS011;54687;50.800;6.772;2023-02-03T07:20:48;4.70;;;2.42;;
11016;SDS011;54687;50.800;6.772;2023-02-03T07:23:15;6.43;;;3.42;;
11016;SDS011;54687;50.800;6.772;2023-02-03T07:25:43;5.20;;;2.25;;
11016;SDS011;54687;50.800;6.772;2023-02-03T07:28:10;4.22;;;2.45;;
11016;SDS011;54687;50.800;6.772;2023-02-03T07:30:37;6.07;;;2.50;;
11016;SDS011;54687;50.800;6.772;2023-02-03T07:33:03;4.05;;;2.15;;
11016;SDS011;54687;50.800;6.772;2023-02-03T07:35:30;4.32;;;2.28;;
11016;SDS011;54687;50.800;6.772;2023-02-03T07:37:56;5.75;;;2.15;;
11016;SDS011;54687;50.800;6.772;2023-02-03T07:40:23;3.50;;;2.42;;
11016;SDS011;54687;50.800;6.772;2023-02-03T07:42:51;6.28;;;2.58;;
11016;SDS011;54687;50.800;6.772;2023-02-03T07:45:19;5.80;;;2.17;;
11016;SDS011;54687;50.800;6.772;2023-02-03T07:47:46;3.88;;;1.90;;
11016;SDS011;54687;50.800;6.772;2023-02-03T07:50:12;4.80;;;2.38;;
11016;SDS011;54687;50.800;6.772;2023-02-03T07:52:40;3.50;;;1.77;;
11016;SDS011;54687;50.800;6.772;2023-02-03T07:55:07;3.70;;;1.90;;
11016;SDS011;54687;50.800;6.772;2023-02-03T07:57:34;4.10;;;2.22;;
11016;SDS011;54687;50.800;6.772;2023-02-03T08:00:03;3.67;;;2.05;;
11016;SDS011;54687;50.800;6.772;2023-02-03T08:02:30;6.38;;;2.78;;
11016;SDS011;54687;50.800;6.772;2023-02-03T08:04:57;6.88;;;2.67;;
11016;SDS011;54687;50.800;6.772;2023-02-03T08:07:23;4.03;;;2.40;;
11016;SDS011;54687;50.800;6.772;2023-02-03T08:09:50;5.00;;;2.15;;
11016;SDS011;54687;50.800;6.772;2023-02-03T08:12:16;6.18;;;2.75;;
11016;SDS011;54687;50.800;6.772;2023-02-03T08:14:43;22.98;;;4.50;;
11016;SDS011;54687;50.800;6.772;2023-02-03T08:17:11;3.85;;;1.92;;
11016;SDS011;54687;50.800;6.772;2023-02-03T08:19:38;3.60;;;2.10;;
11016;SDS011;54687;50.800;6.772;2023-02-03T08:22:04;4.00;;;2.20;;
11016;SDS011;54687;50.800;6.772;2023-02-03T08:24:31;9.57;;;2.55;;
11016;SDS011;54687;50.800;6.772;2023-02-03T08:26:59;3.85;;;2.00;;
11016;SDS011;54687;50.800;6.772;2023-02-03T08:29:26;4.65;;;2.08;;
11016;SDS011;54687;50.800;6.772;2023-02-03T08:31:52;3.63;;;2.38;;
11016;SDS011;54687;50.800;6.772;2023-02-03T08:34:20;5.80;;;1.95;;
11016;SDS011;54687;50.800;6.772;2023-02-03T08:36:47;3.72;;;2.28;;
11016;SDS011;54687;50.800;6.772;2023-02-03T08:39:13;5.75;;;2.00;;
11016;SDS011;54687;50.800;6.772;2023-02-03T08:41:40;4.20;;;2.17;;
11016;SDS011;54687;50.800;6.772;2023-02-03T08:44:06;6.15;;;2.38;;
11016;SDS011;54687;50.800;6.772;2023-02-03T08:46:33;6.70;;;2.60;;
11016;SDS011;54687;50.800;6.772;2023-02-03T08:49:00;3.05;;;2.00;;
11016;SDS011;54687;50.800;6.772;2023-02-03T08:51:29;4.45;;;1.77;;
11016;SDS011;54687;50.800;6.772;2023-02-03T08:53:56;2.70;;;1.83;;
11016;SDS011;54687;50.800;6.772;2023-02-03T08:56:22;5.78;;;2.35;;
11016;SDS011;54687;50.800;6.772;2023-02-03T08:58:50;6.50;;;3.35;;
11016;SDS011;54687;50.800;6.772;2023-02-03T09:01:17;4.93;;;2.20;;
11016;SDS011;54687;50.800;6.772;2023-02-03T09:03:43;4.18;;;2.50;;
11016;SDS011;54687;50.800;6.772;2023-02-03T09:06:10;2.88;;;1.70;;
11016;SDS011;54687;50.800;6.772;2023-02-03T09:08:42;4.55;;;2.15;;
11016;SDS011;54687;50.800;6.772;2023-02-03T09:11:11;3.47;;;1.90;;
11016;SDS011;54687;50.800;6.772;2023-02-03T09:13:38;4.60;;;2.25;;
11016;SDS011;54687;50.800;6.772;2023-02-03T09:16:10;3.40;;;2.00;;
11016;SDS011;54687;50.800;6.772;2023-02-03T09:18:37;4.68;;;2.00;;
11016;SDS011;54687;50.800;6.772;2023-02-03T09:21:06;4.38;;;2.17;;
11016;SDS011;54687;50.800;6.772;2023-02-03T09:23:35;5.05;;;2.42;;
11016;SDS011;54687;50.800;6.772;2023-02-03T09:26:04;3.72;;;2.40;;
11016;SDS011;54687;50.800;6.772;2023-02-03T09:28:32;3.63;;;2.22;;
11016;SDS011;54687;50.800;6.772;2023-02-03T09:30:59;6.72;;;2.40;;
11016;SDS011;54687;50.800;6.772;2023-02-03T09:33:26;6.22;;;2.70;;
11016;SDS011;54687;50.800;6.772;2023-02-03T09:35:52;4.80;;;2.80;;
11016;SDS011;54687;50.800;6.772;2023-02-03T09:38:19;5.60;;;2.72;;
11016;SDS011;54687;50.800;6.772;2023-02-03T09:40:48;7.90;;;2.55;;
11016;SDS011;54687;50.800;6.772;2023-02-03T09:43:27;5.70;;;2.50;;
11016;SDS011;54687;50.800;6.772;2023-02-03T09:46:02;7.15;;;2.95;;
11016;SDS011;54687;50.800;6.772;2023-02-03T09:48:34;6.15;;;2.63;;
11016;SDS011;54687;50.800;6.772;2023-02-03T09:51:06;4.97;;;2.72;;
11016;SDS011;54687;50.800;6.772;2023-02-03T09:53:46;9.32;;;2.58;;
11016;SDS011;54687;50.800;6.772;2023-02-03T09:56:19;4.53;;;2.47;;
11016;SDS011;54687;50.800;6.772;2023-02-03T09:58:53;5.95;;;2.53;;
11016;SDS011;54687;50.800;6.772;2023-02-03T10:01:20;5.93;;;2.58;;
11016;SDS011;54687;50.800;6.772;2023-02-03T10:03:50;4.10;;;2.20;;
11016;SDS011;54687;50.800;6.772;2023-02-03T10:06:29;5.40;;;2.17;;
11016;SDS011;54687;50.800;6.772;2023-02-03T10:09:10;3.22;;;2.20;;
11016;SDS011;54687;50.800;6.772;2023-02-03T10:14:52;6.25;;;2.30;;
11016;SDS011;54687;50.800;6.772;2023-02-03T10:17:32;6.78;;;2.70;;
11016;SDS011;54687;50.800;6.772;2023-02-03T10:20:04;3.72;;;2.50;;
11016;SDS011;54687;50.800;6.772;2023-02-03T10:22:39;5.38;;;2.30;;
11016;SDS011;54687;50.800;6.772;2023-02-03T10:25:14;4.95;;;2.40;;
11016;SDS011;54687;50.800;6.772;2023-02-03T10:27:48;3.80;;;1.90;;
11016;SDS011;54687;50.800;6.772;2023-02-03T10:30:20;2.88;;;2.08;;
11016;SDS011;54687;50.800;6.772;2023-02-03T10:32:48;6.00;;;2.30;;
11016;SDS011;54687;50.800;6.772;2023-02-03T10:35:17;5.63;;;3.03;;
11016;SDS011;54687;50.800;6.772;2023-02-03T10:37:46;4.18;;;2.17;;
11016;SDS011;54687;50.800;6.772;2023-02-03T10:40:15;3.17;;;2.63;;
11016;SDS011;54687;50.800;6.772;2023-02-03T10:42:43;3.17;;;2.22;;
11016;SDS011;54687;50.800;6.772;2023-02-03T10:45:40;3.42;;;2.35;;
11016;SDS011;54687;50.800;6.772;2023-02-03T10:48:09;4.10;;;2.42;;
11016;SDS011;54687;50.800;6.772;2023-02-03T10:50:41;4.03;;;2.40;;
11016;SDS011;54687;50.800;6.772;2023-02-03T10:53:18;6.03;;;3.03;;
11016;SDS011;54687;50.800;6.772;2023-02-03T10:55:47;5.30;;;2.70;;
11016;SDS011;54687;50.800;6.772;2023-02-03T10:58:15;4.72;;;2.40;;
11016;SDS011;54687;50.800;6.772;2023-02-03T11:00:50;5.95;;;2.42;;
11016;SDS011;54687;50.800;6.772;2023-02-03T11:03:21;6.43;;;2.58;;
11016;SDS011;54687;50.800;6.772;2023-02-03T11:06:02;3.63;;;2.33;;
11016;SDS011;54687;50.800;6.772;2023-02-03T11:08:33;4.38;;;2.55;;
11016;SDS011;54687;50.800;6.772;2023-02-03T11:11:02;3.55;;;2.38;;
11016;SDS011;54687;50.800;6.772;2023-02-03T11:13:29;3.03;;;2.67;;
11016;SDS011;54687;50.800;6.772;2023-02-03T11:15:58;5.65;;;2.15;;
11016;SDS011;54687;50.800;6.772;2023-02-03T11:18:37;4.95;;;2.00;;
11016;SDS011;54687;50.800;6.772;2023-02-03T11:21:11;5.60;;;2.75;;
11016;SDS011;54687;50.800;6.772;2023-02-03T11:23:47;3.92;;;2.88;;
11016;SDS011;54687;50.800;6.772;2023-02-03T11:26:18;4.38;;;2.83;;
11016;SDS011;54687;50.800;6.772;2023-02-03T11:28:48;3.08;;;2.60;;
11016;SDS011;54687;50.800;6.772;2023-02-03T11:31:22;4.90;;;2.58;;
11016;SDS011;54687;50.800;6.772;2023-02-03T11:33:55;10.98;;;3.95;;
11016;SDS011;54687;50.800;6.772;2023-02-03T11:36:24;3.70;;;2.65;;
11016;SDS011;54687;50.800;6.772;2023-02-03T11:38:59;3.40;;;2.60;;
11016;SDS011;54687;50.800;6.772;2023-02-03T11:41:35;3.25;;;2.30;;
11016;SDS011;54687;50.800;6.772;2023-02-03T11:44:08;3.63;;;2.47;;
11016;SDS011;54687;50.800;6.772;2023-02-03T11:46:37;5.53;;;2.80;;
11016;SDS011;54687;50.800;6.772;2023-02-03T11:49:07;3.15;;;2.50;;
11016;SDS011;54687;50.800;6.772;2023-02-03T11:51:43;4.40;;;2.60;;
11016;SDS011;54687;50.800;6.772;2023-02-03T11:54:21;4.10;;;2.80;;
11016;SDS011;54687;50.800;6.772;2023-02-03T11:57:03;3.35;;;2.85;;
11016;SDS011;54687;50.800;6.772;2023-02-03T11:59:48;3.47;;;2.78;;
11016;SDS011;54687;50.800;6.772;2023-02-03T12:05:48;7.40;;;3.45;;
11016;SDS011;54687;50.800;6.772;2023-02-03T12:08:30;4.97;;;3.08;;
11016;SDS011;54687;50.800;6.772;2023-02-03T12:11:11;4.35;;;3.10;;
11016;SDS011;54687;50.800;6.772;2023-02-03T12:13:58;6.10;;;3.28;;
11016;SDS011;54687;50.800;6.772;2023-02-03T12:16:59;3.28;;;2.97;;
11016;SDS011;54687;50.800;6.772;2023-02-03T12:19:41;4.45;;;3.20;;
11016;SDS011;54687;50.800;6.772;2023-02-03T12:22:20;4.28;;;3.22;;
11016;SDS011;54687;50.800;6.772;2023-02-03T12:24:56;4.40;;;3.75;;
11016;SDS011;54687;50.800;6.772;2023-02-03T12:27:31;6.35;;;4.13;;
11016;SDS011;54687;50.800;6.772;2023-02-03T12:30:04;4.93;;;4.07;;
11016;SDS011;54687;50.800;6.772;2023-02-03T12:32:39;5.30;;;4.18;;
11016;SDS011;54687;50.800;6.772;2023-02-03T12:35:12;7.88;;;4.10;;
11016;SDS011;54687;50.800;6.772;2023-02-03T12:37:46;7.03;;;3.95;;
11016;SDS011;54687;50.800;6.772;2023-02-03T12:40:18;4.07;;;3.67;;
11016;SDS011;54687;50.800;6.772;2023-02-03T12:42:50;5.82;;;4.35;;
11016;SDS011;54687;50.800;6.772;2023-02-03T12:45:22;5.53;;;3.80;;
11016;SDS011;54687;50.800;6.772;2023-02-03T12:47:54;6.43;;;4.28;;
11016;SDS011;54687;50.800;6.772;2023-02-03T12:50:26;13.68;;;7.97;;
11016;SDS011;54687;50.800;6.772;2023-02-03T12:52:57;7.38;;;5.90;;
11016;SDS011;54687;50.800;6.772;2023-02-03T12:55:32;5.72;;;5.25;;
11016;SDS011;54687;50.800;6.772;2023-02-03T12:58:02;6.45;;;4.63;;
11016;SDS011;54687;50.800;6.772;2023-02-03T13:00:36;9.00;;;5.38;;
11016;SDS011;54687;50.800;6.772;2023-02-03T13:03:13;5.07;;;4.35;;
11016;SDS011;54687;50.800;6.772;2023-02-03T13:05:47;6.00;;;4.82;;
11016;SDS011;54687;50.800;6.772;2023-02-03T13:08:21;6.15;;;4.85;;
11016;SDS011;54687;50.800;6.772;2023-02-03T13:10:52;11.23;;;5.28;;
11016;SDS011;54687;50.800;6.772;2023-02-03T13:13:25;6.00;;;5.10;;
11016;SDS011;54687;50.800;6.772;2023-02-03T13:15:58;5.63;;;4.80;;
11016;SDS011;54687;50.800;6.772;2023-02-03T13:18:32;6.03;;;5.18;;
11016;SDS011;54687;50.800;6.772;2023-02-03T13:21:01;9.00;;;5.63;;
11016;SDS011;54687;50.800;6.772;2023-02-03T13:23:30;6.80;;;5.50;;
11016;SDS011;54687;50.800;6.772;2023-02-03T13:26:07;8.32;;;5.55;;
11016;SDS011;54687;50.800;6.772;2023-02-03T13:28:53;6.80;;;6.15;;
11016;SDS011;54687;50.800;6.772;2023-02-03T13:31:32;8.05;;;5.80;;
11016;SDS011;54687;50.800;6.772;2023-02-03T13:34:11;7.90;;;6.05;;
11016;SDS011;54687;50.800;6.772;2023-02-03T13:40:07;7.65;;;5.88;;
11016;SDS011;54687;50.800;6.772;2023-02-03T13:42:43;10.48;;;6.88;;
11016;SDS011;54687;50.800;6.772;2023-02-03T13:45:14;7.85;;;6.30;;
11016;SDS011;54687;50.800;6.772;2023-02-03T13:47:46;7.78;;;6.40;;
11016;SDS011;54687;50.800;6.772;2023-02-03T13:50:18;8.07;;;6.40;;
11016;SDS011;54687;50.800;6.772;2023-02-03T13:52:52;11.70;;;6.80;;
11016;SDS011;54687;50.800;6.772;2023-02-03T13:55:27;8.48;;;7.43;;
11016;SDS011;54687;50.800;6.772;2023-02-03T13:57:58;10.50;;;7.85;;
11016;SDS011;54687;50.800;6.772;2023-02-03T14:03:41;9.70;;;7.43;;
11016;SDS011;54687;50.800;6.772;2023-02-03T14:09:36;7.53;;;6.82;;
11016;SDS011;54687;50.800;6.772;2023-02-03T14:15:17;11.52;;;7.60;;
11016;SDS011;54687;50.800;6.772;2023-02-03T14:17:55;10.68;;;7.95;;
11016;SDS011;54687;50.800;6.772;2023-02-03T14:20:38;7.57;;;6.68;;
11016;SDS011;54687;50.800;6.772;2023-02-03T14:23:09;11.27;;;7.57;;
11016;SDS011;54687;50.800;6.772;2023-02-03T14:25:40;12.88;;;8.57;;
11016;SDS011;54687;50.800;6.772;2023-02-03T14:28:13;8.23;;;7.07;;
11016;SDS011;54687;50.800;6.772;2023-02-03T14:31:01;9.63;;;7.53;;
11016;SDS011;54687;50.800;6.772;2023-02-03T14:36:39;8.20;;;7.40;;
11016;SDS011;54687;50.800;6.772;2023-02-03T14:42:26;8.27;;;7.55;;
11016;SDS011;54687;50.800;6.772;2023-02-03T14:45:09;7.95;;;7.20;;
11016;SDS011;54687;50.800;6.772;2023-02-03T14:47:48;10.27;;;8.02;;
11016;SDS011;54687;50.800;6.772;2023-02-03T14:50:31;8.93;;;8.07;;
11016;SDS011;54687;50.800;6.772;2023-02-03T14:53:12;9.18;;;8.00;;
11016;SDS011;54687;50.800;6.772;2023-02-03T14:55:50;9.48;;;8.50;;
11016;SDS011;54687;50.800;6.772;2023-02-03T14:58:27;10.88;;;8.27;;
11016;SDS011;54687;50.800;6.772;2023-02-03T15:00:58;8.65;;;7.85;;
11016;SDS011;54687;50.800;6.772;2023-02-03T15:03:25;8.18;;;7.43;;
11016;SDS011;54687;50.800;6.772;2023-02-03T15:05:56;12.02;;;8.55;;
11016;SDS011;54687;50.800;6.772;2023-02-03T15:08:29;10.75;;;9.15;;
11016;SDS011;54687;50.800;6.772;2023-02-03T15:10:57;9.13;;;7.82;;
11016;SDS011;54687;50.800;6.772;2023-02-03T15:13:25;9.70;;;8.70;;
11016;SDS011;54687;50.800;6.772;2023-02-03T15:15:52;10.60;;;8.52;;
11016;SDS011;54687;50.800;6.772;2023-02-03T15:18:26;10.15;;;9.23;;
11016;SDS011;54687;50.800;6.772;2023-02-03T15:20:54;11.40;;;8.10;;
11016;SDS011;54687;50.800;6.772;2023-02-03T15:23:22;11.23;;;8.52;;
11016;SDS011;54687;50.800;6.772;2023-02-03T15:25:53;9.18;;;8.32;;
11016;SDS011;54687;50.800;6.772;2023-02-03T15:28:22;8.57;;;7.78;;
11016;SDS011;54687;50.800;6.772;2023-02-03T15:30:50;8.73;;;7.82;;
11016;SDS011;54687;50.800;6.772;2023-02-03T15:33:20;10.65;;;7.97;;
11016;SDS011;54687;50.800;6.772;2023-02-03T15:35:50;8.43;;;7.43;;
11016;SDS011;54687;50.800;6.772;2023-02-03T15:38:22;9.15;;;7.70;;